Estación de Quillota

Ultimos registro cada 15 minutos 61
Estación Fecha / Hora Temperatura Humedad Lluvia Velocidad Dirección Radiación Presion
61 Quillota 06-05-2026 15:00 16,9 90 0 0 227 67 1018,6
60 Quillota 06-05-2026 14:45 17,2 91 0 0,4 218 97 1018,5
59 Quillota 06-05-2026 14:30 16,9 90 0 0,4 270 132 1018,3
58 Quillota 06-05-2026 14:15 16,8 90 0,2 0 272 86 1018,7
57 Quillota 06-05-2026 14:00 16,6 89 0 0 271 54 1018,7
56 Quillota 06-05-2026 13:45 16,5 90 0 0,4 267 79 1018,9
55 Quillota 06-05-2026 13:30 16,6 89 0,2 0,9 195 91 1019,2
54 Quillota 06-05-2026 13:15 16,6 88 0 0,4 136 90 1019,3
53 Quillota 06-05-2026 13:00 16,6 86 0 0 34 72 1019,3
52 Quillota 06-05-2026 12:45 16,6 84 0,2 0,9 346 113 1019,2
51 Quillota 06-05-2026 12:30 16,7 82 0 0,9 173 91 1019
50 Quillota 06-05-2026 12:15 16,7 81 0 1,3 38 69 1018,7
49 Quillota 06-05-2026 12:00 16,6 81 0 0,9 25 63 1018,7
48 Quillota 06-05-2026 11:45 16,6 79 0 0,9 42 58 1018,4
47 Quillota 06-05-2026 11:30 16,2 78 0 0,4 129 77 1018,6
46 Quillota 06-05-2026 11:15 15,6 80 0 0,4 194 62 1018,3
45 Quillota 06-05-2026 11:00 14,6 84 0 0 122 74 1017,8
44 Quillota 06-05-2026 10:45 14,2 82 0 0,4 236 69 1017,5
43 Quillota 06-05-2026 10:30 14,2 82 0 0,9 249 70 1017,5
42 Quillota 06-05-2026 10:15 14,1 83 0 0 305 90 1017,4
41 Quillota 06-05-2026 10:00 13,6 86 0 0,4 287 185 1017,2
40 Quillota 06-05-2026 09:45 13 85 0 0,4 297 128 1017,1
39 Quillota 06-05-2026 09:30 13,2 85 0 1,3 292 79 1017,2
38 Quillota 06-05-2026 09:15 13,9 85 0 0,9 238 81 1017,5
37 Quillota 06-05-2026 09:00 15,2 94 0 1,3 270 118 1017
36 Quillota 06-05-2026 08:45 13,7 95 0 0,4 234 274 1016,7
35 Quillota 06-05-2026 08:30 12,2 95 0 0,9 180 221 1016,7
34 Quillota 06-05-2026 08:15 9,8 94 0 1,3 185 100 1016,6
33 Quillota 06-05-2026 08:00 8,6 93 0 1,3 219 14 1016,5
32 Quillota 06-05-2026 07:45 8,3 93 0 0,4 134 9 1016,1
31 Quillota 06-05-2026 07:30 8,6 93 0 0,4 169 0 1016,4
30 Quillota 06-05-2026 07:15 8,6 93 0 0,9 123 0 1016,7
29 Quillota 06-05-2026 07:00 8,6 93 0 0,4 218 0 1016,4
28 Quillota 06-05-2026 06:45 8,7 93 0 0,9 220 0 1016,3
27 Quillota 06-05-2026 06:30 8,8 93 0 0,9 78 0 1016,1
26 Quillota 06-05-2026 06:15 8,4 93 0 0,9 198 0 1016
25 Quillota 06-05-2026 06:00 8,2 93 0 0,4 134 0 1015,6
24 Quillota 06-05-2026 05:45 8,1 92 0 0,9 264 0 1015,4
23 Quillota 06-05-2026 05:30 8,7 91 0 0,4 308 0 1015,4
22 Quillota 06-05-2026 05:15 9,2 92 0 0,4 221 0 1015,5
21 Quillota 06-05-2026 05:00 9,1 92 0 0,9 221 0 1015,2
20 Quillota 06-05-2026 04:45 9,6 91 0 0 66 0 1015,2
19 Quillota 06-05-2026 04:30 9,8 92 0 0 138 0 1015,1
18 Quillota 06-05-2026 04:15 9,2 92 0 0 158 0 1015,2
17 Quillota 06-05-2026 04:00 9,4 92 0 0 69 0 1015
16 Quillota 06-05-2026 03:45 9,4 92 0 0,9 110 0 1014,9
15 Quillota 06-05-2026 03:30 9,8 92 0 0,9 154 0 1014,9
14 Quillota 06-05-2026 03:15 9,3 93 0 0,4 147 0 1014,9
13 Quillota 06-05-2026 03:00 8,3 90 0 0 147 0 1014,7
12 Quillota 06-05-2026 02:45 8,7 90 0 0 92 0 1014,3
11 Quillota 06-05-2026 02:30 8,6 90 0 0,4 91 0 1014,3
10 Quillota 06-05-2026 02:15 9,2 89 0 0 165 0 1014,6
9 Quillota 06-05-2026 02:00 9,7 89 0 0,4 86 0 1014,5
8 Quillota 06-05-2026 01:45 10,3 89 0 0,4 61 0 1014,6
7 Quillota 06-05-2026 01:30 10,9 91 0 0 61 0 1014,7
6 Quillota 06-05-2026 01:15 10,8 89 0 0 27 0 1014,8
5 Quillota 06-05-2026 01:00 11,2 89 0 0 27 0 1015
4 Quillota 06-05-2026 00:45 11,6 88 0 0,4 27 0 1015,2
3 Quillota 06-05-2026 00:30 11,9 88 0 0 23 0 1015,4
2 Quillota 06-05-2026 00:15 12,4 88 0 0 24 0 1015,5
1 Quillota 06-05-2026 00:00 12,6 89 0 0 49 0 1015,6